createdAt,value
2023-01-27T00:04:34.053Z,8.00
2023-01-27T00:09:37.781Z,19.05
2023-01-27T00:14:41.603Z,11.13
2023-01-27T00:19:46.819Z,13.48
2023-01-27T00:24:50.448Z,9.50
2023-01-27T00:29:54.182Z,5.75
2023-01-27T00:34:59.258Z,10.35
2023-01-27T00:40:02.938Z,8.07
2023-01-27T00:45:27.979Z,12.75
2023-01-27T00:50:32.988Z,5.55
2023-01-27T00:55:36.675Z,11.80
2023-01-27T01:00:40.644Z,6.88
2023-01-27T01:05:45.677Z,6.78
2023-01-27T01:10:49.436Z,15.65
2023-01-27T01:15:53.118Z,6.53
2023-01-27T01:20:58.177Z,10.40
2023-01-27T01:26:01.941Z,8.57
2023-01-27T01:31:07.251Z,5.25
2023-01-27T01:36:15.135Z,5.72
2023-01-27T01:41:20.885Z,8.43
2023-01-27T01:46:24.698Z,6.30
2023-01-27T01:51:33.025Z,10.63
2023-01-27T01:56:39.883Z,8.70
2023-01-27T02:01:43.544Z,11.95
2023-01-27T02:06:56.240Z,6.80
2023-01-27T02:12:00.269Z,6.75
2023-01-27T02:17:05.711Z,6.15
2023-01-27T02:22:16.934Z,5.85
2023-01-27T02:27:22.009Z,4.43
2023-01-27T02:32:26.935Z,12.30
2023-01-27T02:37:34.017Z,6.80
2023-01-27T02:42:39.779Z,5.47
2023-01-27T02:47:43.546Z,5.55
2023-01-27T02:52:47.420Z,8.48
2023-01-27T02:57:54.357Z,16.67
2023-01-27T03:03:36.581Z,9.82
2023-01-27T03:08:40.396Z,10.32
2023-01-27T03:13:45.395Z,7.78
2023-01-27T03:18:50.853Z,3.78
2023-01-27T03:23:55.846Z,7.07
2023-01-27T03:29:15.602Z,8.18
2023-01-27T03:34:21.340Z,10.20
2023-01-27T03:39:45.400Z,11.23
2023-01-27T03:45:07.999Z,15.52
2023-01-27T03:50:13.957Z,10.00
2023-01-27T03:55:17.985Z,9.13
2023-01-27T04:00:23.463Z,8.93
2023-01-27T04:05:44.420Z,8.77
2023-01-27T04:11:08.203Z,13.43
2023-01-27T04:16:13.605Z,8.75
2023-01-27T04:21:17.290Z,10.73
2023-01-27T04:26:21.882Z,10.88
2023-01-27T04:31:27.323Z,12.68
2023-01-27T04:36:31.443Z,10.23
2023-01-27T04:41:35.229Z,12.77
2023-01-27T04:46:40.811Z,14.95
2023-01-27T04:51:46.239Z,12.25
2023-01-27T04:56:57.601Z,16.33
2023-01-27T05:02:04.667Z,15.30
2023-01-27T05:12:11.902Z,15.98
2023-01-27T05:17:17.053Z,17.90
2023-01-27T05:22:20.760Z,15.43
2023-01-27T05:27:24.505Z,24.55
2023-01-27T05:32:31.218Z,14.30
2023-01-27T05:37:34.937Z,18.70
2023-01-27T05:42:38.609Z,14.93
2023-01-27T05:47:43.727Z,11.88
2023-01-27T05:52:47.450Z,10.75
2023-01-27T05:57:51.129Z,11.23
2023-01-27T06:02:56.203Z,10.88
2023-01-27T06:07:59.912Z,8.88
2023-01-27T06:13:04.076Z,8.30
2023-01-27T06:18:09.287Z,8.80
2023-01-27T06:23:15.061Z,9.30
2023-01-27T06:28:28.804Z,8.35
2023-01-27T06:33:34.875Z,8.45
2023-01-27T06:38:38.951Z,6.47
2023-01-27T06:43:42.722Z,12.70
2023-01-27T06:48:47.875Z,7.22
2023-01-27T06:53:51.904Z,10.13
2023-01-27T06:58:55.649Z,9.77
2023-01-27T07:04:00.855Z,8.93
2023-01-27T07:09:04.596Z,9.60
2023-01-27T07:14:10.461Z,7.63
2023-01-27T07:19:16.694Z,8.82
2023-01-27T07:24:20.424Z,9.23
2023-01-27T07:29:24.256Z,7.57
2023-01-27T07:34:29.370Z,6.05
2023-01-27T07:39:33.607Z,5.88
2023-01-27T07:44:37.280Z,8.38
2023-01-27T07:49:42.579Z,7.57
2023-01-27T07:54:46.340Z,5.43
2023-01-27T07:59:53.154Z,7.25
2023-01-27T08:04:58.315Z,7.72
2023-01-27T08:10:02.106Z,7.47
2023-01-27T08:15:06.604Z,4.38
2023-01-27T08:20:13.681Z,5.65
2023-01-27T08:25:17.905Z,5.80
2023-01-27T08:30:22.140Z,5.40
2023-01-27T08:35:27.392Z,4.50
2023-01-27T08:40:31.171Z,4.40
2023-01-27T08:45:35.471Z,5.47
2023-01-27T08:50:40.538Z,4.55
2023-01-27T08:55:44.308Z,3.70
2023-01-27T09:00:48.076Z,4.20
2023-01-27T09:05:53.242Z,4.28
2023-01-27T09:10:57.214Z,4.93
2023-01-27T09:16:02.695Z,7.55
2023-01-27T09:21:08.647Z,5.65
2023-01-27T09:26:12.333Z,4.30
2023-01-27T09:31:16.308Z,4.32
2023-01-27T09:36:22.734Z,4.60
2023-01-27T09:41:48.715Z,4.33
2023-01-27T09:47:19.843Z,5.20
2023-01-27T09:52:47.913Z,3.78
2023-01-27T09:57:59.329Z,4.28
2023-01-27T10:03:23.817Z,5.07
2023-01-27T10:08:53.588Z,2.83
2023-01-27T10:14:12.148Z,4.80
2023-01-27T10:19:31.655Z,3.92
2023-01-27T10:24:50.299Z,3.65
2023-01-27T10:29:59.012Z,2.25
2023-01-27T10:35:15.007Z,3.17
2023-01-27T10:40:27.134Z,3.90
2023-01-27T10:45:38.288Z,2.13
2023-01-27T10:50:45.602Z,1.98
2023-01-27T10:55:59.440Z,4.03
2023-01-27T11:01:20.879Z,2.47
2023-01-27T11:06:28.962Z,3.08
2023-01-27T11:11:49.321Z,2.88
2023-01-27T11:16:55.227Z,7.68
2023-01-27T11:22:08.369Z,3.05
2023-01-27T11:27:23.697Z,3.30
2023-01-27T11:32:44.422Z,3.97
2023-01-27T11:37:50.600Z,3.55
2023-01-27T11:42:58.336Z,2.63
2023-01-27T11:48:04.240Z,2.55
2023-01-27T11:53:15.612Z,3.72
2023-01-27T11:58:26.033Z,4.70
2023-01-27T12:03:44.595Z,3.35
2023-01-27T12:08:49.740Z,2.65
2023-01-27T12:13:56.734Z,3.15
2023-01-27T12:19:04.400Z,3.30
2023-01-27T12:24:22.230Z,3.90
2023-01-27T12:29:30.182Z,2.17
2023-01-27T12:34:38.504Z,3.17
2023-01-27T12:39:46.405Z,3.10
2023-01-27T12:44:51.560Z,4.72
2023-01-27T12:50:21.168Z,2.88
2023-01-27T12:55:33.123Z,6.90
2023-01-27T13:00:38.315Z,4.68
2023-01-27T13:05:43.795Z,3.67
2023-01-27T13:10:52.513Z,4.10
2023-01-27T13:16:06.348Z,4.85
2023-01-27T13:21:16.246Z,3.83
2023-01-27T13:26:23.716Z,4.82
2023-01-27T13:31:41.860Z,6.53
2023-01-27T13:36:51.492Z,7.03
2023-01-27T13:42:05.831Z,4.68
2023-01-27T13:47:16.080Z,5.65
2023-01-27T13:52:19.962Z,8.43
2023-01-27T13:57:52.344Z,4.00
2023-01-27T14:03:27.474Z,4.57
2023-01-27T14:08:57.303Z,4.60
2023-01-27T14:14:19.606Z,3.00
2023-01-27T14:19:36.281Z,3.58
2023-01-27T14:24:46.353Z,2.78
2023-01-27T14:29:56.975Z,4.72
2023-01-27T14:35:28.761Z,6.40
2023-01-27T14:40:36.973Z,8.40
2023-01-27T14:45:47.054Z,3.25
2023-01-27T14:51:03.263Z,3.42
2023-01-27T14:56:15.330Z,5.47
2023-01-27T15:01:30.024Z,4.85
2023-01-27T15:06:44.186Z,4.15
2023-01-27T15:12:12.883Z,5.07
2023-01-27T15:17:30.149Z,3.65
2023-01-27T15:22:45.358Z,5.88
2023-01-27T15:27:53.207Z,4.18
2023-01-27T15:32:57.359Z,4.45
2023-01-27T15:38:20.547Z,4.03
2023-01-27T15:43:25.478Z,3.63
2023-01-27T15:48:34.314Z,4.85
2023-01-27T15:53:44.661Z,5.25
2023-01-27T15:58:56.437Z,3.33
2023-01-27T16:04:14.094Z,3.72
2023-01-27T16:09:34.379Z,4.38
2023-01-27T16:14:46.098Z,5.03
2023-01-27T16:20:03.573Z,3.75
2023-01-27T16:25:23.239Z,8.23
2023-01-27T16:30:36.040Z,5.60
2023-01-27T16:35:47.308Z,3.47
2023-01-27T16:40:55.610Z,5.22
2023-01-27T16:46:02.055Z,4.97
2023-01-27T16:51:14.654Z,4.72
2023-01-27T16:56:22.733Z,7.50
2023-01-27T17:01:29.661Z,7.47
2023-01-27T17:06:33.730Z,5.70
2023-01-27T17:11:38.867Z,6.82
2023-01-27T17:16:44.239Z,6.88
2023-01-27T17:21:53.744Z,6.18
2023-01-27T17:27:03.123Z,7.15
2023-01-27T17:32:20.459Z,6.90
2023-01-27T17:37:25.323Z,6.68
2023-01-27T17:42:33.955Z,6.20
2023-01-27T17:47:44.172Z,7.72
2023-01-27T17:52:52.374Z,8.00
2023-01-27T17:58:03.466Z,10.43
2023-01-27T18:03:13.312Z,10.73
2023-01-27T18:08:18.926Z,8.27
2023-01-27T18:13:38.313Z,8.55
2023-01-27T18:18:42.105Z,12.05
2023-01-27T18:23:48.280Z,7.32
2023-01-27T18:28:56.376Z,8.03
2023-01-27T18:34:02.162Z,9.23
2023-01-27T18:39:28.282Z,7.22
2023-01-27T18:44:37.128Z,5.80
2023-01-27T18:49:40.899Z,6.75
2023-01-27T18:54:45.082Z,7.20
2023-01-27T18:59:50.257Z,7.47
2023-01-27T19:04:54.118Z,8.00
2023-01-27T19:09:57.767Z,8.27
2023-01-27T19:15:02.853Z,9.30
2023-01-27T19:20:18.508Z,7.90
2023-01-27T19:25:23.032Z,7.13
2023-01-27T19:30:32.603Z,12.32
2023-01-27T19:35:36.814Z,7.35
2023-01-27T19:40:41.109Z,7.03
2023-01-27T19:45:48.848Z,6.13
2023-01-27T19:50:54.210Z,7.72
2023-01-27T19:55:59.210Z,8.35
2023-01-27T20:01:04.540Z,8.68
2023-01-27T20:06:15.987Z,9.93
2023-01-27T20:11:32.842Z,9.00
2023-01-27T20:16:38.049Z,7.35
2023-01-27T20:21:41.857Z,8.73
2023-01-27T20:26:45.765Z,8.07
2023-01-27T20:31:53.815Z,9.18
2023-01-27T20:36:57.862Z,7.68
2023-01-27T20:42:01.579Z,14.55
2023-01-27T20:47:06.740Z,8.98
2023-01-27T20:52:11.023Z,10.95
2023-01-27T20:57:14.872Z,6.90
2023-01-27T21:02:19.885Z,6.97
2023-01-27T21:07:24.677Z,6.35
2023-01-27T21:12:29.507Z,7.80
2023-01-27T21:17:35.771Z,6.50
2023-01-27T21:22:39.644Z,4.85
2023-01-27T21:27:45.270Z,5.80
2023-01-27T21:32:50.485Z,7.07
2023-01-27T21:37:54.230Z,5.50
2023-01-27T21:43:15.482Z,4.35
2023-01-27T21:48:20.576Z,7.28
2023-01-27T21:53:24.623Z,6.82
2023-01-27T21:58:28.299Z,7.35
2023-01-27T22:03:33.562Z,6.95
2023-01-27T22:08:37.681Z,6.13
2023-01-27T22:13:41.295Z,5.50
2023-01-27T22:18:46.332Z,6.35
2023-01-27T22:23:50.023Z,6.95
2023-01-27T22:28:53.673Z,4.72
2023-01-27T22:33:58.893Z,9.55
2023-01-27T22:39:02.641Z,7.05
2023-01-27T22:44:06.483Z,6.10
2023-01-27T22:49:12.139Z,4.70
2023-01-27T22:54:15.817Z,6.28
2023-01-27T22:59:19.526Z,5.65
2023-01-27T23:04:24.549Z,5.57
2023-01-27T23:09:28.232Z,6.40
2023-01-27T23:14:31.952Z,5.07
2023-01-27T23:19:37.093Z,6.10
2023-01-27T23:24:40.751Z,5.28
2023-01-27T23:29:44.459Z,7.82
2023-01-27T23:34:50.375Z,5.70
2023-01-27T23:39:54.089Z,6.72
2023-01-27T23:44:57.793Z,5.55
2023-01-27T23:50:02.904Z,4.57
2023-01-27T23:55:07.914Z,5.85
